createdAt,value
2017-08-01T00:00:06.990Z,99.99
2017-08-01T00:01:06.934Z,99.99
2017-08-01T00:02:06.948Z,99.99
2017-08-01T00:03:07.013Z,99.99
2017-08-01T00:04:07.021Z,99.99
2017-08-01T00:05:07.026Z,99.99
2017-08-01T00:06:06.917Z,99.99
2017-08-01T00:07:06.943Z,99.99
2017-08-01T00:08:06.946Z,99.99
2017-08-01T00:09:06.973Z,99.99
2017-08-01T00:10:06.949Z,99.99
2017-08-01T00:11:06.916Z,99.99
2017-08-01T00:12:06.976Z,99.99
2017-08-01T00:13:06.950Z,99.99
2017-08-01T00:14:06.950Z,99.99
2017-08-01T00:15:06.984Z,99.99
2017-08-01T00:16:06.944Z,99.99
2017-08-01T00:17:06.947Z,99.99
2017-08-01T00:18:06.912Z,99.99
2017-08-01T00:19:06.942Z,99.99
2017-08-01T00:20:06.980Z,99.99
2017-08-01T00:21:06.977Z,99.99
2017-08-01T00:22:06.945Z,99.99
2017-08-01T00:23:06.981Z,99.99
2017-08-01T00:24:06.974Z,99.99
2017-08-01T00:25:06.878Z,99.99
2017-08-01T00:26:06.880Z,99.99
2017-08-01T00:27:06.884Z,99.99
2017-08-01T00:28:06.886Z,99.99
2017-08-01T00:29:06.883Z,99.99
2017-08-01T00:30:06.887Z,99.99
2017-08-01T00:31:06.881Z,99.99
2017-08-01T00:32:06.881Z,99.99
2017-08-01T00:33:06.881Z,99.99
2017-08-01T00:34:07.078Z,99.99
2017-08-01T00:35:06.961Z,99.99
2017-08-01T00:36:06.997Z,99.99
2017-08-01T00:37:06.932Z,99.99
2017-08-01T00:38:06.958Z,99.99
2017-08-01T00:39:06.991Z,99.99
2017-08-01T00:40:06.997Z,99.99
2017-08-01T00:41:06.931Z,99.99
2017-08-01T00:42:06.959Z,99.99
2017-08-01T00:43:06.937Z,99.99
2017-08-01T00:44:07.001Z,99.99
2017-08-01T00:45:06.980Z,99.99
2017-08-01T00:46:06.997Z,99.99
2017-08-01T00:47:07.001Z,99.99
2017-08-01T00:48:06.937Z,99.99
2017-08-01T00:49:06.967Z,99.99
2017-08-01T00:50:07.009Z,99.99
2017-08-01T00:51:07.002Z,99.99
2017-08-01T00:52:06.937Z,99.99
2017-08-01T00:53:06.938Z,99.99
2017-08-01T00:54:07.012Z,99.99
2017-08-01T00:55:06.978Z,99.99
2017-08-01T00:56:06.973Z,99.99
2017-08-01T00:57:07.043Z,99.99
2017-08-01T00:58:06.953Z,99.99
2017-08-01T00:59:07.012Z,99.99
2017-08-01T01:00:07.007Z,99.99
2017-08-01T01:01:07.043Z,99.99
2017-08-01T01:02:06.956Z,99.99
2017-08-01T01:03:06.959Z,99.99
2017-08-01T01:04:06.965Z,99.99
2017-08-01T01:05:07.017Z,99.99
2017-08-01T01:06:06.948Z,99.99
2017-08-01T01:07:07.006Z,99.99
2017-08-01T01:08:06.896Z,99.99
2017-08-01T01:09:06.893Z,99.99
2017-08-01T01:10:06.974Z,99.99
2017-08-01T01:11:06.941Z,99.99
2017-08-01T01:12:06.899Z,99.99
2017-08-01T01:13:07.008Z,99.99
2017-08-01T01:14:07.012Z,99.99
2017-08-01T01:15:06.959Z,99.99
2017-08-01T01:16:07.027Z,99.99
2017-08-01T01:17:06.987Z,99.99
2017-08-01T01:18:07.061Z,99.99
2017-08-01T01:19:07.048Z,99.99
2017-08-01T01:20:07.035Z,99.99
2017-08-01T01:21:07.000Z,99.99
2017-08-01T01:22:06.965Z,99.99
2017-08-01T01:23:06.987Z,99.99
2017-08-01T01:24:06.985Z,99.99
2017-08-01T01:25:07.010Z,99.99
2017-08-01T01:26:07.015Z,99.99
2017-08-01T01:27:06.964Z,99.99
2017-08-01T01:28:06.945Z,99.99
2017-08-01T01:29:06.963Z,99.99
2017-08-01T01:30:06.967Z,99.99
2017-08-01T01:31:06.906Z,99.99
2017-08-01T01:32:06.983Z,99.99
2017-08-01T01:33:06.968Z,99.99
2017-08-01T01:34:06.951Z,99.99
2017-08-01T01:35:06.995Z,99.99
2017-08-01T01:36:07.018Z,99.99
2017-08-01T01:37:06.956Z,99.99
2017-08-01T01:38:07.139Z,99.99
2017-08-01T01:39:06.971Z,99.99
2017-08-01T01:40:06.989Z,99.99
2017-08-01T01:41:06.911Z,99.99
2017-08-01T01:42:06.909Z,99.99
2017-08-01T01:43:06.914Z,99.99
2017-08-01T01:44:06.993Z,99.99
2017-08-01T01:45:06.972Z,99.99
2017-08-01T01:46:07.004Z,99.99
2017-08-01T01:47:07.000Z,99.99
2017-08-01T01:48:06.985Z,99.99
2017-08-01T01:49:06.978Z,99.99
2017-08-01T01:50:06.982Z,99.99
2017-08-01T01:51:06.978Z,99.99
2017-08-01T01:52:06.952Z,99.99
2017-08-01T01:53:07.053Z,99.99
2017-08-01T01:54:06.995Z,99.99
2017-08-01T01:55:06.926Z,99.99
2017-08-01T01:56:06.971Z,99.99
2017-08-01T01:57:07.040Z,99.99
2017-08-01T01:58:06.997Z,99.99
2017-08-01T01:59:06.974Z,99.99
2017-08-01T02:00:07.040Z,99.99
2017-08-01T02:01:06.972Z,99.99
2017-08-01T02:02:06.989Z,99.99
2017-08-01T02:03:07.039Z,99.99
2017-08-01T02:04:07.080Z,99.99
2017-08-01T02:05:07.051Z,99.99
2017-08-01T02:06:06.989Z,99.99
2017-08-01T02:07:07.030Z,99.99
2017-08-01T02:08:07.060Z,99.99
2017-08-01T02:09:06.991Z,99.99
2017-08-01T02:10:07.095Z,99.99
2017-08-01T02:11:07.084Z,99.99
2017-08-01T02:12:07.085Z,99.99
2017-08-01T02:13:07.029Z,99.99
2017-08-01T02:14:07.004Z,99.99
2017-08-01T02:15:07.023Z,99.99
2017-08-01T02:16:07.032Z,99.99
2017-08-01T02:17:07.089Z,99.99
2017-08-01T02:18:07.029Z,99.99
2017-08-01T02:19:07.003Z,99.99
2017-08-01T02:20:07.091Z,99.99
2017-08-01T02:21:07.072Z,99.99
2017-08-01T02:22:07.035Z,99.99
2017-08-01T02:23:07.058Z,99.99
2017-08-01T02:24:07.047Z,99.99
2017-08-01T02:25:07.067Z,99.99
2017-08-01T02:26:07.003Z,99.99
2017-08-01T02:27:07.066Z,99.99
2017-08-01T02:28:07.033Z,99.99
2017-08-01T02:29:07.009Z,99.99
2017-08-01T02:30:06.972Z,99.99
2017-08-01T02:31:07.025Z,99.99
2017-08-01T02:32:07.021Z,99.99
2017-08-01T02:33:06.978Z,99.99
2017-08-01T02:34:07.105Z,99.99
2017-08-01T02:35:07.015Z,99.99
2017-08-01T02:36:07.063Z,99.99
2017-08-01T02:37:07.005Z,99.99
2017-08-01T02:38:07.021Z,99.99
2017-08-01T02:39:07.010Z,99.99
2017-08-01T02:40:07.105Z,99.99
2017-08-01T02:41:07.062Z,99.99
2017-08-01T02:42:07.108Z,99.99
2017-08-01T02:43:07.051Z,99.99
2017-08-01T02:44:07.067Z,99.99
2017-08-01T02:45:07.071Z,99.99
2017-08-01T02:46:07.014Z,99.99
2017-08-01T02:47:07.042Z,99.99
2017-08-01T02:48:07.059Z,99.99
2017-08-01T02:49:07.066Z,99.99
2017-08-01T02:50:07.036Z,99.99
2017-08-01T02:51:07.066Z,99.99
2017-08-01T02:52:07.050Z,99.99
2017-08-01T02:53:07.044Z,99.99
2017-08-01T02:54:07.029Z,99.99
2017-08-01T02:55:06.999Z,99.99
2017-08-01T02:56:07.069Z,99.99
2017-08-01T02:57:06.953Z,99.99
2017-08-01T02:58:07.071Z,99.99
2017-08-01T02:59:06.956Z,99.99
2017-08-01T03:00:07.162Z,99.99
2017-08-01T03:01:07.026Z,99.99
2017-08-01T03:02:07.081Z,99.99
2017-08-01T03:03:07.035Z,99.99
2017-08-01T03:04:07.047Z,99.99
2017-08-01T03:05:07.010Z,99.99
2017-08-01T03:06:07.077Z,99.99
2017-08-01T03:07:06.964Z,99.99
2017-08-01T03:08:07.038Z,99.99
2017-08-01T03:09:07.020Z,99.99
2017-08-01T03:10:07.074Z,99.99
2017-08-01T03:11:07.024Z,99.99
2017-08-01T03:12:07.043Z,99.99
2017-08-01T03:13:06.968Z,99.99
2017-08-01T03:14:07.125Z,99.99
2017-08-01T03:15:07.061Z,99.99
2017-08-01T03:16:07.034Z,99.99
2017-08-01T03:17:07.041Z,99.99
2017-08-01T03:18:07.064Z,99.99
2017-08-01T03:19:07.131Z,99.99
2017-08-01T03:20:07.093Z,99.99
2017-08-01T03:21:07.120Z,99.99
2017-08-01T03:22:07.037Z,99.99
2017-08-01T03:23:07.102Z,99.99
2017-08-01T03:24:07.127Z,99.99
2017-08-01T03:25:07.096Z,99.99
2017-08-01T03:26:07.060Z,99.99
2017-08-01T03:27:07.036Z,99.99
2017-08-01T03:28:07.062Z,99.99
2017-08-01T03:29:07.097Z,99.99
2017-08-01T03:30:07.101Z,99.99
2017-08-01T03:31:07.096Z,99.99
2017-08-01T03:32:07.033Z,99.99
2017-08-01T03:33:07.101Z,99.99
2017-08-01T03:34:07.062Z,99.99
2017-08-01T03:35:07.111Z,99.99
2017-08-01T03:36:07.053Z,99.99
2017-08-01T03:37:07.073Z,99.99
2017-08-01T03:38:07.133Z,99.99
2017-08-01T03:39:07.111Z,99.99
2017-08-01T03:40:07.050Z,99.99
2017-08-01T03:41:07.102Z,99.99
2017-08-01T03:42:07.112Z,99.99
2017-08-01T03:43:07.077Z,99.99
2017-08-01T03:44:07.056Z,99.99
2017-08-01T03:45:07.020Z,99.99
2017-08-01T03:46:07.054Z,99.99
2017-08-01T03:47:07.192Z,99.99
2017-08-01T03:48:07.058Z,99.99
2017-08-01T03:49:07.067Z,99.99
2017-08-01T03:50:07.070Z,99.99
2017-08-01T03:51:07.057Z,99.99
2017-08-01T03:52:07.037Z,99.99
2017-08-01T03:53:07.074Z,99.99
2017-08-01T03:54:07.076Z,99.99
2017-08-01T03:55:07.112Z,99.99
2017-08-01T03:56:07.047Z,99.99
2017-08-01T03:57:07.113Z,99.99
2017-08-01T03:58:07.115Z,99.99
2017-08-01T03:59:07.116Z,99.99
2017-08-01T04:00:07.050Z,99.99
2017-08-01T04:01:07.078Z,99.99
2017-08-01T04:02:07.114Z,99.99
2017-08-01T04:03:07.114Z,99.99
2017-08-01T04:04:07.115Z,99.99
2017-08-01T04:05:07.083Z,99.99
2017-08-01T04:06:07.093Z,99.99
2017-08-01T04:07:07.160Z,99.99
2017-08-01T04:08:07.153Z,99.99
2017-08-01T04:09:07.061Z,99.99
2017-08-01T04:10:07.105Z,99.99
2017-08-01T04:11:07.099Z,99.99
2017-08-01T04:12:07.070Z,99.99
2017-08-01T04:13:07.069Z,99.99
2017-08-01T04:14:07.165Z,99.99
2017-08-01T04:15:07.084Z,99.99
2017-08-01T04:16:07.073Z,99.99
2017-08-01T04:17:07.078Z,99.99
2017-08-01T04:18:07.088Z,99.99
2017-08-01T04:19:07.089Z,99.99
2017-08-01T04:20:07.138Z,99.99
2017-08-01T04:21:07.080Z,99.99
2017-08-01T04:22:07.093Z,99.99
2017-08-01T04:23:07.044Z,99.99
2017-08-01T04:24:07.088Z,99.99
2017-08-01T04:25:07.109Z,99.99
2017-08-01T04:26:07.105Z,99.99
2017-08-01T04:27:07.069Z,99.99
2017-08-01T04:28:07.127Z,99.99
2017-08-01T04:29:07.143Z,99.99
2017-08-01T04:30:07.139Z,99.99
2017-08-01T04:31:07.140Z,99.99
2017-08-01T04:32:07.170Z,99.99
2017-08-01T04:33:07.075Z,99.99
2017-08-01T04:34:07.134Z,99.99
2017-08-01T04:35:07.110Z,99.99
2017-08-01T04:36:07.128Z,99.99
2017-08-01T04:37:07.159Z,99.99
2017-08-01T04:38:07.082Z,99.99
2017-08-01T04:39:07.142Z,99.99
2017-08-01T04:40:07.171Z,99.99
2017-08-01T04:41:07.142Z,99.99
2017-08-01T04:42:07.114Z,99.99
2017-08-01T04:43:07.149Z,99.99
2017-08-01T04:44:07.080Z,99.99
2017-08-01T04:45:07.078Z,99.99
2017-08-01T04:46:07.074Z,99.99
2017-08-01T04:47:07.105Z,99.99
2017-08-01T04:48:07.103Z,99.99
2017-08-01T04:49:07.112Z,99.99
2017-08-01T04:50:07.103Z,99.99
2017-08-01T04:51:07.107Z,99.99
2017-08-01T04:52:07.107Z,99.99
2017-08-01T04:53:07.110Z,99.99
2017-08-01T04:54:07.088Z,99.99
2017-08-01T04:55:07.143Z,99.99
2017-08-01T04:56:07.091Z,99.99
2017-08-01T04:57:07.086Z,99.99
2017-08-01T04:58:07.179Z,99.99
2017-08-01T04:59:07.129Z,99.99
2017-08-01T05:00:07.235Z,99.99
2017-08-01T05:01:07.157Z,99.99
2017-08-01T05:02:07.121Z,99.99
2017-08-01T05:03:07.180Z,99.99
2017-08-01T05:04:07.127Z,99.99
2017-08-01T05:05:07.091Z,99.99
2017-08-01T05:06:07.092Z,99.99
2017-08-01T05:07:07.180Z,99.99
2017-08-01T05:08:07.179Z,99.99
2017-08-01T05:09:07.195Z,99.99
2017-08-01T05:10:07.122Z,99.99
2017-08-01T05:11:07.147Z,99.99
2017-08-01T05:12:07.151Z,99.99
2017-08-01T05:13:07.130Z,99.99
2017-08-01T05:14:07.102Z,99.99
2017-08-01T05:15:07.137Z,99.99
2017-08-01T05:16:07.153Z,99.99
2017-08-01T05:17:07.098Z,99.99
2017-08-01T05:18:07.131Z,99.99
2017-08-01T05:19:07.109Z,99.99
2017-08-01T05:20:07.102Z,99.99
2017-08-01T05:21:07.206Z,99.99
2017-08-01T05:22:07.132Z,99.99
2017-08-01T05:23:07.133Z,99.99
2017-08-01T05:24:07.105Z,99.99
2017-08-01T05:25:07.166Z,99.99
2017-08-01T05:26:07.105Z,99.99
2017-08-01T05:27:07.137Z,99.99
2017-08-01T05:28:07.172Z,99.99
2017-08-01T05:29:07.109Z,99.99
2017-08-01T05:30:07.106Z,99.99
2017-08-01T05:31:07.108Z,99.99
2017-08-01T05:32:07.201Z,99.99
2017-08-01T05:33:07.186Z,99.99
2017-08-01T05:34:07.197Z,99.99
2017-08-01T05:35:07.110Z,99.99
2017-08-01T05:36:07.145Z,99.99
2017-08-01T05:37:07.177Z,99.99
2017-08-01T05:38:07.135Z,99.99
2017-08-01T05:39:07.207Z,99.99
2017-08-01T05:40:07.146Z,99.99
2017-08-01T05:41:07.113Z,99.99
2017-08-01T05:42:07.109Z,99.99
2017-08-01T05:43:07.147Z,99.99
2017-08-01T05:44:07.145Z,99.99
2017-08-01T05:45:07.141Z,99.99
2017-08-01T05:46:07.154Z,99.99
2017-08-01T05:47:07.204Z,99.99
2017-08-01T05:48:07.181Z,99.99
2017-08-01T05:49:07.121Z,99.99
2017-08-01T05:50:07.191Z,99.99
2017-08-01T05:51:07.119Z,99.99
2017-08-01T05:52:07.224Z,99.99
2017-08-01T05:53:07.185Z,99.99
2017-08-01T05:54:07.149Z,99.99
2017-08-01T05:55:07.192Z,99.99
2017-08-01T05:56:07.190Z,99.99
2017-08-01T05:57:07.161Z,99.99
2017-08-01T05:58:07.182Z,99.99
2017-08-01T05:59:07.163Z,99.99
2017-08-01T06:00:07.127Z,99.99
2017-08-01T06:01:07.216Z,99.99
2017-08-01T06:02:07.193Z,99.99
2017-08-01T06:03:07.132Z,99.99
2017-08-01T06:04:07.193Z,99.72
2017-08-01T06:05:07.189Z,99.59
2017-08-01T06:06:07.227Z,99.86
2017-08-01T06:07:07.223Z,99.81
2017-08-01T06:08:07.156Z,99.99
2017-08-01T06:09:07.224Z,99.86
2017-08-01T06:10:07.158Z,98.59
2017-08-01T06:11:07.159Z,97.61
2017-08-01T06:12:07.218Z,98.42
2017-08-01T06:13:07.165Z,98.72
2017-08-01T06:14:07.153Z,98.37
2017-08-01T06:15:07.152Z,98.94
2017-08-01T06:16:07.171Z,99.18
2017-08-01T06:17:07.132Z,99.29
2017-08-01T06:18:07.222Z,99.96
2017-08-01T06:19:07.234Z,99.99
2017-08-01T06:20:07.134Z,99.48
2017-08-01T06:21:07.173Z,99.89
2017-08-01T06:22:07.229Z,99.99
2017-08-01T06:23:07.231Z,99.99
2017-08-01T06:24:07.169Z,99.51
2017-08-01T06:25:07.174Z,99.43
2017-08-01T06:26:07.273Z,99.94
2017-08-01T06:27:07.142Z,98.94
2017-08-01T06:28:07.139Z,98.88
2017-08-01T06:29:07.216Z,98.53
2017-08-01T06:30:07.213Z,99.53
2017-08-01T06:31:07.215Z,98.59
2017-08-01T06:32:07.142Z,98.80
2017-08-01T06:33:07.176Z,97.39
2017-08-01T06:34:07.214Z,97.83
2017-08-01T06:35:07.201Z,97.36
2017-08-01T06:36:07.165Z,97.18
2017-08-01T06:37:07.248Z,98.21
2017-08-01T06:38:07.146Z,98.02
2017-08-01T06:39:07.232Z,97.64
2017-08-01T06:40:07.183Z,98.12
2017-08-01T06:41:07.146Z,98.50
2017-08-01T06:42:07.233Z,96.02
2017-08-01T06:43:07.187Z,98.10
2017-08-01T06:44:07.216Z,96.28
2017-08-01T06:45:07.242Z,97.64
2017-08-01T06:46:07.186Z,97.31
2017-08-01T06:47:07.186Z,96.93
2017-08-01T06:48:07.155Z,97.23
2017-08-01T06:49:07.149Z,97.83
2017-08-01T06:50:07.245Z,98.02
2017-08-01T06:51:07.251Z,97.74
2017-08-01T06:52:07.191Z,98.02
2017-08-01T06:53:07.212Z,96.88
2017-08-01T06:54:07.195Z,97.47
2017-08-01T06:55:07.231Z,97.99
2017-08-01T06:56:07.266Z,98.12
2017-08-01T06:57:07.218Z,97.07
2017-08-01T06:58:07.154Z,97.34
2017-08-01T06:59:07.217Z,97.36
2017-08-01T07:00:07.197Z,97.69
2017-08-01T07:01:07.199Z,95.80
2017-08-01T07:02:07.248Z,95.58
2017-08-01T07:03:07.180Z,96.55
2017-08-01T07:04:07.249Z,95.53
2017-08-01T07:05:07.219Z,96.09
2017-08-01T07:06:07.218Z,94.18
2017-08-01T07:07:07.188Z,96.34
2017-08-01T07:08:07.158Z,95.53
2017-08-01T07:09:07.260Z,93.35
2017-08-01T07:10:07.192Z,95.18
2017-08-01T07:11:07.164Z,95.28
2017-08-01T07:12:07.226Z,95.31
2017-08-01T07:13:07.158Z,95.45
2017-08-01T07:14:07.225Z,94.29
2017-08-01T07:15:07.234Z,93.18
2017-08-01T07:16:07.228Z,94.02
2017-08-01T07:17:07.202Z,93.67
2017-08-01T07:18:07.210Z,94.15
2017-08-01T07:19:07.267Z,95.07
2017-08-01T07:20:07.273Z,93.72
2017-08-01T07:21:07.176Z,93.08
2017-08-01T07:22:07.176Z,91.60
2017-08-01T07:23:07.261Z,91.11
2017-08-01T07:24:07.268Z,88.09
2017-08-01T07:25:07.301Z,89.54
2017-08-01T07:26:07.176Z,89.40
2017-08-01T07:27:07.175Z,89.22
2017-08-01T07:28:07.199Z,89.24
2017-08-01T07:29:07.265Z,89.16
2017-08-01T07:30:07.229Z,90.23
2017-08-01T07:31:07.178Z,90.07
2017-08-01T07:32:07.171Z,90.63
2017-08-01T07:33:07.216Z,90.20
2017-08-01T07:34:07.243Z,90.07
2017-08-01T07:35:07.270Z,90.98
2017-08-01T07:36:07.180Z,87.51
2017-08-01T07:37:07.208Z,86.52
2017-08-01T07:38:07.183Z,86.89
2017-08-01T07:39:07.205Z,86.30
2017-08-01T07:40:07.268Z,85.66
2017-08-01T07:41:07.251Z,83.49
2017-08-01T07:42:07.270Z,81.45
2017-08-01T07:43:07.265Z,82.48
2017-08-01T07:44:07.219Z,78.31
2017-08-01T07:45:07.218Z,81.82
2017-08-01T07:46:07.241Z,81.26
2017-08-01T07:47:07.188Z,82.08
2017-08-01T07:48:07.188Z,83.01
2017-08-01T07:49:07.261Z,82.77
2017-08-01T07:50:07.192Z,81.29
2017-08-01T07:51:07.253Z,83.30
2017-08-01T07:52:07.263Z,82.88
2017-08-01T07:53:07.194Z,82.56
2017-08-01T07:54:07.280Z,83.14
2017-08-01T07:55:07.196Z,82.82
2017-08-01T07:56:07.289Z,84.60
2017-08-01T07:57:07.291Z,83.33
2017-08-01T07:58:07.220Z,83.78
2017-08-01T07:59:07.284Z,85.66
2017-08-01T08:00:07.258Z,85.27
2017-08-01T08:01:07.222Z,84.07
2017-08-01T08:02:07.199Z,86.68
2017-08-01T08:03:07.198Z,86.44
2017-08-01T08:04:07.290Z,86.97
2017-08-01T08:05:07.269Z,87.61
2017-08-01T08:06:07.220Z,86.60
2017-08-01T08:07:07.254Z,86.76
2017-08-01T08:08:07.268Z,85.32
2017-08-01T08:09:07.261Z,85.72
2017-08-01T08:10:07.232Z,87.29
2017-08-01T08:11:07.206Z,87.18
2017-08-01T08:12:07.237Z,87.32
2017-08-01T08:13:07.199Z,87.82
2017-08-01T08:14:07.289Z,87.90
2017-08-01T08:15:07.271Z,86.94
2017-08-01T08:16:07.227Z,88.50
2017-08-01T08:17:07.293Z,86.57
2017-08-01T08:18:07.232Z,86.87
2017-08-01T08:19:07.296Z,86.07
2017-08-01T08:20:07.292Z,85.53
2017-08-01T08:21:07.261Z,86.01
2017-08-01T08:22:07.212Z,86.38
2017-08-01T08:23:07.237Z,86.41
2017-08-01T08:24:07.307Z,85.80
2017-08-01T08:25:07.250Z,84.95
2017-08-01T08:26:07.254Z,85.46
2017-08-01T08:27:07.265Z,86.15
2017-08-01T08:28:07.214Z,85.66
2017-08-01T08:29:07.245Z,86.41
2017-08-01T08:30:07.216Z,87.00
2017-08-01T08:31:07.213Z,86.12
2017-08-01T08:32:07.272Z,85.83
2017-08-01T08:33:07.282Z,86.81
2017-08-01T08:34:07.245Z,87.10
2017-08-01T08:35:07.217Z,87.61
2017-08-01T08:36:07.279Z,86.76
2017-08-01T08:37:07.304Z,87.90
2017-08-01T08:38:07.257Z,87.53
2017-08-01T08:39:07.302Z,87.45
2017-08-01T08:40:07.245Z,87.67
2017-08-01T08:41:07.212Z,88.41
2017-08-01T08:42:07.250Z,89.43
2017-08-01T08:43:07.257Z,87.85
2017-08-01T08:44:07.317Z,88.41
2017-08-01T08:45:07.217Z,88.89
2017-08-01T08:46:07.223Z,88.84
2017-08-01T08:47:07.222Z,89.62
2017-08-01T08:48:07.253Z,89.88
2017-08-01T08:49:07.291Z,89.56
2017-08-01T08:50:07.225Z,88.60
2017-08-01T08:51:07.313Z,89.22
2017-08-01T08:52:07.320Z,90.09
2017-08-01T08:53:07.260Z,89.75
2017-08-01T08:54:07.291Z,89.22
2017-08-01T08:55:07.228Z,90.34
2017-08-01T08:56:07.406Z,90.15
2017-08-01T08:57:07.260Z,90.39
2017-08-01T08:58:07.266Z,90.63
2017-08-01T08:59:07.286Z,91.41
2017-08-01T09:00:07.265Z,91.68
2017-08-01T09:01:07.229Z,92.14
2017-08-01T09:02:07.304Z,91.95
2017-08-01T09:03:07.235Z,91.92
2017-08-01T09:04:07.228Z,92.32
2017-08-01T09:06:07.255Z,92.95
2017-08-01T09:07:07.287Z,92.46
2017-08-01T09:08:07.328Z,92.40
2017-08-01T09:09:07.234Z,91.28
2017-08-01T09:10:07.324Z,91.71
2017-08-01T09:11:07.269Z,92.43
2017-08-01T09:12:07.234Z,92.86
2017-08-01T09:13:07.294Z,93.16
2017-08-01T09:14:07.239Z,93.35
2017-08-01T09:15:07.268Z,93.21
2017-08-01T09:16:07.297Z,89.99
2017-08-01T09:17:07.254Z,91.25
2017-08-01T09:18:07.253Z,92.30
2017-08-01T09:19:07.259Z,91.47
2017-08-01T09:20:07.243Z,90.42
2017-08-01T09:21:07.259Z,91.36
2017-08-01T09:22:07.263Z,91.55
2017-08-01T09:23:07.208Z,91.76
2017-08-01T09:24:07.287Z,92.81
2017-08-01T09:25:07.264Z,93.26
2017-08-01T09:26:07.283Z,92.95
2017-08-01T09:27:07.283Z,93.51
2017-08-01T09:28:07.322Z,93.83
2017-08-01T09:29:07.253Z,92.95
2017-08-01T09:30:07.318Z,92.89
2017-08-01T09:31:07.336Z,92.91
2017-08-01T09:32:07.244Z,93.75
2017-08-01T09:33:07.253Z,92.99
2017-08-01T09:34:07.254Z,94.15
2017-08-01T09:35:07.306Z,95.07
2017-08-01T09:36:07.254Z,93.85
2017-08-01T09:37:07.269Z,92.03
2017-08-01T09:38:07.223Z,93.08
2017-08-01T09:39:07.226Z,92.65
2017-08-01T09:40:07.276Z,91.76
2017-08-01T09:41:07.269Z,92.27
2017-08-01T09:42:07.265Z,91.71
2017-08-01T09:43:07.228Z,92.49
2017-08-01T09:44:07.284Z,92.16
2017-08-01T09:45:07.256Z,92.16
2017-08-01T09:46:07.351Z,92.97
2017-08-01T09:47:07.256Z,92.95
2017-08-01T09:48:07.328Z,93.72
2017-08-01T09:49:07.289Z,91.97
2017-08-01T09:50:07.286Z,92.43
2017-08-01T09:51:07.354Z,92.76
2017-08-01T09:52:07.264Z,92.57
2017-08-01T09:53:07.325Z,92.40
2017-08-01T09:54:07.322Z,92.30
2017-08-01T09:55:07.286Z,92.78
2017-08-01T09:56:07.288Z,94.15
2017-08-01T09:57:07.315Z,93.75
2017-08-01T09:58:07.311Z,94.18
2017-08-01T09:59:07.257Z,93.10
2017-08-01T10:00:07.283Z,94.02
2017-08-01T10:01:07.316Z,93.75
2017-08-01T10:02:07.322Z,92.81
2017-08-01T10:03:07.319Z,93.26
2017-08-01T10:04:07.319Z,92.70
2017-08-01T10:05:07.322Z,93.89
2017-08-01T10:06:07.267Z,93.85
2017-08-01T10:07:07.265Z,93.96
2017-08-01T10:08:07.305Z,93.75
2017-08-01T10:09:07.271Z,93.37
2017-08-01T10:10:07.322Z,94.42
2017-08-01T10:11:07.292Z,94.50
2017-08-01T10:12:07.359Z,94.42
2017-08-01T10:13:07.294Z,94.59
2017-08-01T10:14:07.307Z,94.18
2017-08-01T10:15:07.340Z,94.99
2017-08-01T10:16:07.332Z,93.99
2017-08-01T10:17:07.293Z,95.66
2017-08-01T10:18:07.343Z,96.55
2017-08-01T10:19:07.367Z,95.47
2017-08-01T10:20:07.369Z,95.20
2017-08-01T10:21:07.275Z,93.48
2017-08-01T10:22:07.301Z,95.12
2017-08-01T10:23:07.369Z,94.83
2017-08-01T10:24:07.280Z,92.51
2017-08-01T10:25:07.337Z,92.38
2017-08-01T10:26:07.286Z,90.98
2017-08-01T10:27:07.281Z,93.67
2017-08-01T10:28:07.285Z,94.77
2017-08-01T10:29:07.340Z,93.99
2017-08-01T10:30:07.285Z,94.10
2017-08-01T10:31:07.355Z,92.59
2017-08-01T10:32:07.378Z,91.17
2017-08-01T10:33:07.287Z,92.16
2017-08-01T10:34:07.347Z,92.14
2017-08-01T10:35:07.317Z,91.36
2017-08-01T10:36:07.344Z,93.18
2017-08-01T10:37:07.340Z,92.97
2017-08-01T10:38:07.275Z,92.03
2017-08-01T10:39:07.342Z,92.91
2017-08-01T10:40:07.309Z,90.47
2017-08-01T10:41:07.344Z,89.56
2017-08-01T10:42:07.346Z,87.48
2017-08-01T10:43:07.281Z,88.84
2017-08-01T10:44:07.340Z,91.09
2017-08-01T10:45:07.285Z,92.84
2017-08-01T10:46:07.340Z,89.62
2017-08-01T10:47:07.313Z,87.72
2017-08-01T10:48:07.350Z,86.38
2017-08-01T10:49:07.286Z,87.80
2017-08-01T10:50:07.280Z,84.09
2017-08-01T10:51:07.343Z,83.12
2017-08-01T10:52:07.317Z,82.67
2017-08-01T10:53:07.316Z,81.45
2017-08-01T10:54:07.282Z,80.41
2017-08-01T10:55:07.347Z,82.75
2017-08-01T10:56:07.328Z,82.48
2017-08-01T10:57:07.392Z,80.47
2017-08-01T10:58:07.294Z,80.29
2017-08-01T10:59:07.298Z,82.85
2017-08-01T11:00:07.383Z,83.94
2017-08-01T11:01:07.326Z,83.65
2017-08-01T11:02:07.357Z,84.92
2017-08-01T11:03:07.375Z,82.93
2017-08-01T11:04:07.394Z,81.79
2017-08-01T11:05:07.301Z,80.15
2017-08-01T11:06:07.326Z,80.05
2017-08-01T11:07:07.309Z,82.61
2017-08-01T11:08:07.322Z,81.95
2017-08-01T11:09:07.399Z,81.95
2017-08-01T11:10:07.398Z,80.79
2017-08-01T11:11:07.342Z,80.81
2017-08-01T11:12:07.399Z,81.08
2017-08-01T11:13:07.308Z,81.37
2017-08-01T11:14:07.390Z,84.12
2017-08-01T11:15:07.368Z,80.36
2017-08-01T11:16:07.310Z,79.28
2017-08-01T11:17:07.366Z,80.76
2017-08-01T11:18:07.373Z,79.63
2017-08-01T11:19:07.316Z,79.05
2017-08-01T11:20:07.403Z,79.36
2017-08-01T11:21:07.310Z,80.47
2017-08-01T11:22:07.385Z,80.92
2017-08-01T11:23:07.372Z,82.00
2017-08-01T11:24:07.386Z,79.36
2017-08-01T11:25:07.335Z,78.36
2017-08-01T11:26:07.379Z,78.23
2017-08-01T11:27:07.407Z,80.97
2017-08-01T11:28:07.380Z,77.65
2017-08-01T11:29:07.351Z,76.65
2017-08-01T11:30:07.319Z,79.63
2017-08-01T11:31:07.338Z,77.73
2017-08-01T11:32:07.345Z,77.75
2017-08-01T11:33:07.344Z,76.36
2017-08-01T11:34:07.317Z,77.81
2017-08-01T11:35:07.321Z,78.33
2017-08-01T11:36:07.414Z,77.59
2017-08-01T11:37:07.354Z,77.44
2017-08-01T11:38:07.411Z,76.52
2017-08-01T11:39:07.348Z,75.31
2017-08-01T11:40:07.343Z,75.62
2017-08-01T11:41:07.378Z,75.68
2017-08-01T11:42:07.397Z,73.45
2017-08-01T11:43:07.347Z,74.63
2017-08-01T11:44:07.419Z,74.63
2017-08-01T11:45:07.328Z,73.37
2017-08-01T11:46:07.377Z,73.30
2017-08-01T11:47:07.386Z,75.49
2017-08-01T11:48:07.419Z,75.76
2017-08-01T11:49:07.395Z,76.15
2017-08-01T11:50:07.390Z,73.89
2017-08-01T11:51:07.361Z,73.50
2017-08-01T11:52:07.328Z,73.30
2017-08-01T11:53:07.446Z,69.80
2017-08-01T11:54:07.350Z,74.05
2017-08-01T11:55:07.382Z,72.36
2017-08-01T11:56:07.385Z,75.78
2017-08-01T11:57:07.409Z,73.48
2017-08-01T11:58:07.368Z,76.78
2017-08-01T11:59:07.405Z,76.20
2017-08-01T12:00:07.337Z,78.01
2017-08-01T12:01:07.366Z,72.67
2017-08-01T12:02:07.393Z,74.11
2017-08-01T12:03:07.430Z,72.22
2017-08-01T12:04:07.401Z,71.31
2017-08-01T12:05:07.335Z,69.82
2017-08-01T12:06:07.397Z,70.53
2017-08-01T12:07:07.342Z,70.43
2017-08-01T12:08:07.397Z,71.47
2017-08-01T12:09:07.337Z,68.45
2017-08-01T12:10:07.368Z,70.48
2017-08-01T12:11:07.346Z,69.85
2017-08-01T12:12:07.426Z,69.65
2017-08-01T12:13:07.394Z,69.02
2017-08-01T12:14:07.404Z,71.15
2017-08-01T12:15:07.350Z,70.60
2017-08-01T12:16:07.364Z,69.72
2017-08-01T12:17:07.394Z,70.71
2017-08-01T12:18:07.333Z,70.68
2017-08-01T12:19:07.368Z,72.09
2017-08-01T12:20:07.363Z,72.30
2017-08-01T12:21:07.366Z,72.14
2017-08-01T12:22:07.398Z,73.97
2017-08-01T12:23:07.408Z,73.24
2017-08-01T12:24:07.373Z,73.85
2017-08-01T12:25:07.339Z,75.02
2017-08-01T12:26:07.349Z,73.61
2017-08-01T12:27:07.364Z,74.71
2017-08-01T12:28:07.364Z,74.08
2017-08-01T12:29:07.360Z,72.88
2017-08-01T12:30:07.343Z,75.84
2017-08-01T12:31:07.286Z,74.11
2017-08-01T12:32:07.366Z,73.89
2017-08-01T12:33:07.365Z,73.55
2017-08-01T12:34:07.487Z,72.88
2017-08-01T12:35:07.372Z,74.34
2017-08-01T12:36:07.444Z,74.87
2017-08-01T12:37:07.381Z,75.02
2017-08-01T12:38:07.363Z,74.26
2017-08-01T12:39:07.384Z,73.40
2017-08-01T12:40:07.392Z,75.62
2017-08-01T12:41:07.360Z,74.87
2017-08-01T12:42:07.353Z,75.10
2017-08-01T12:43:07.451Z,75.18
2017-08-01T12:44:07.390Z,76.26
2017-08-01T12:45:07.433Z,76.89
2017-08-01T12:46:07.486Z,76.15
2017-08-01T12:47:07.396Z,77.28
2017-08-01T12:48:07.437Z,76.99
2017-08-01T12:49:07.450Z,77.67
2017-08-01T12:50:07.458Z,77.36
2017-08-01T12:51:07.402Z,78.20
2017-08-01T12:52:07.424Z,78.78
2017-08-01T12:53:07.393Z,78.97